Main page
METAR-TAF:

METAR-TAF

Airports :

Afton Municipal Airport

Afton, Wyoming, United States

latitude: 42-42-32N, longitude: 110-56-32W, elevation: 6219 ft

Current weather observation

The report was made 32 minutes ago, at 10:15 UTC
Calm wind
Temperature 37°F
Humidity 87%
Pressure 29.81 in. Hg
Visibility: 10 miles
Scattered clouds at a height of 7000 ft
Broken clouds at a height of 10000 ft

METAR: KAFO 251015Z AUTO 00000KT 10SM SCT070 BKN100 03/01 A2981 RMK AO2

Time: 04:47 (10:47 UTC)


TAF: missing

Weather observations and forecasts of more than 4000 airports (METAR and TAF reports).

The available stations are represented by yellow and red dots on the map.

Hover mouse over dot to see the name of the station.

Then click to see weather observations and forecasts.

To change the map : click on the green buttons with a black cross to zoom in, on the green button with a dash to zoom out, or on the green arrows for adjacent maps.


METAR-TAF: